sensor_id;sensor_type;location;lat;lon;timestamp;pressure;altitude;pressure_sealevel;temperature
71960;BMP280;59832;51.146;14.024;2024-02-16T00:01:47;98317.44;;;9.07
71960;BMP280;59832;51.146;14.024;2024-02-16T00:04:14;98319.28;;;9.10
71960;BMP280;59832;51.146;14.024;2024-02-16T00:06:40;98314.47;;;9.04
71960;BMP280;59832;51.146;14.024;2024-02-16T00:09:07;98320.22;;;9.17
71960;BMP280;59832;51.146;14.024;2024-02-16T00:11:36;98322.66;;;9.14
71960;BMP280;59832;51.146;14.024;2024-02-16T00:14:03;98326.03;;;9.18
71960;BMP280;59832;51.146;14.024;2024-02-16T00:16:29;98318.00;;;9.16
71960;BMP280;59832;51.146;14.024;2024-02-16T00:18:56;98330.72;;;9.16
71960;BMP280;59832;51.146;14.024;2024-02-16T00:21:23;98323.81;;;9.16
71960;BMP280;59832;51.146;14.024;2024-02-16T00:23:49;98330.50;;;9.09
71960;BMP280;59832;51.146;14.024;2024-02-16T00:26:16;98320.69;;;9.07
71960;BMP280;59832;51.146;14.024;2024-02-16T00:28:42;98320.34;;;9.09
71960;BMP280;59832;51.146;14.024;2024-02-16T00:31:09;98322.91;;;9.09
71960;BMP280;59832;51.146;14.024;2024-02-16T00:33:36;98313.47;;;9.09
71960;BMP280;59832;51.146;14.024;2024-02-16T00:36:03;98311.91;;;9.04
71960;BMP280;59832;51.146;14.024;2024-02-16T00:38:29;98308.00;;;9.07
71960;BMP280;59832;51.146;14.024;2024-02-16T00:40:56;98299.31;;;9.08
71960;BMP280;59832;51.146;14.024;2024-02-16T00:43:22;98302.09;;;9.03
71960;BMP280;59832;51.146;14.024;2024-02-16T00:45:49;98299.47;;;8.99
71960;BMP280;59832;51.146;14.024;2024-02-16T00:48:15;98304.31;;;9.04
71960;BMP280;59832;51.146;14.024;2024-02-16T00:50:42;98293.25;;;8.97
71960;BMP280;59832;51.146;14.024;2024-02-16T00:53:09;98293.28;;;9.00
71960;BMP280;59832;51.146;14.024;2024-02-16T00:55:36;98285.06;;;9.03
71960;BMP280;59832;51.146;14.024;2024-02-16T00:58:03;98278.50;;;9.02
71960;BMP280;59832;51.146;14.024;2024-02-16T01:00:31;98278.31;;;8.95
71960;BMP280;59832;51.146;14.024;2024-02-16T01:02:57;98277.91;;;8.93
71960;BMP280;59832;51.146;14.024;2024-02-16T01:05:24;98274.00;;;8.96
71960;BMP280;59832;51.146;14.024;2024-02-16T01:07:50;98265.63;;;8.95
71960;BMP280;59832;51.146;14.024;2024-02-16T01:10:17;98263.53;;;8.97
71960;BMP280;59832;51.146;14.024;2024-02-16T01:12:44;98267.13;;;8.96
71960;BMP280;59832;51.146;14.024;2024-02-16T01:15:10;98263.53;;;8.97
71960;BMP280;59832;51.146;14.024;2024-02-16T01:17:37;98268.50;;;8.94
71960;BMP280;59832;51.146;14.024;2024-02-16T01:20:06;98267.84;;;8.97
71960;BMP280;59832;51.146;14.024;2024-02-16T01:22:37;98269.34;;;8.98
71960;BMP280;59832;51.146;14.024;2024-02-16T01:25:04;98269.34;;;8.98
71960;BMP280;59832;51.146;14.024;2024-02-16T01:27:31;98260.72;;;9.02
71960;BMP280;59832;51.146;14.024;2024-02-16T01:29:58;98272.03;;;9.05
71960;BMP280;59832;51.146;14.024;2024-02-16T01:32:25;98261.16;;;9.04
71960;BMP280;59832;51.146;14.024;2024-02-16T01:34:51;98263.03;;;9.07
71960;BMP280;59832;51.146;14.024;2024-02-16T01:37:18;98266.31;;;9.08
71960;BMP280;59832;51.146;14.024;2024-02-16T01:39:44;98259.06;;;9.10
71960;BMP280;59832;51.146;14.024;2024-02-16T01:42:12;98269.81;;;9.03
71960;BMP280;59832;51.146;14.024;2024-02-16T01:44:38;98265.31;;;8.97
71960;BMP280;59832;51.146;14.024;2024-02-16T01:47:05;98270.78;;;8.99
71960;BMP280;59832;51.146;14.024;2024-02-16T01:49:33;98266.38;;;8.96
71960;BMP280;59832;51.146;14.024;2024-02-16T01:52:00;98267.50;;;8.98
71960;BMP280;59832;51.146;14.024;2024-02-16T01:54:26;98265.94;;;8.94
71960;BMP280;59832;51.146;14.024;2024-02-16T01:56:54;98266.59;;;8.91
71960;BMP280;59832;51.146;14.024;2024-02-16T01:59:22;98266.06;;;8.97
71960;BMP280;59832;51.146;14.024;2024-02-16T02:01:48;98267.84;;;8.97
71960;BMP280;59832;51.146;14.024;2024-02-16T02:04:15;98261.38;;;8.99
71960;BMP280;59832;51.146;14.024;2024-02-16T02:06:42;98259.72;;;8.91
71960;BMP280;59832;51.146;14.024;2024-02-16T02:09:09;98265.31;;;8.97
71960;BMP280;59832;51.146;14.024;2024-02-16T02:11:35;98262.44;;;8.98
71960;BMP280;59832;51.146;14.024;2024-02-16T02:14:02;98260.28;;;9.00
71960;BMP280;59832;51.146;14.024;2024-02-16T02:16:28;98265.22;;;8.93
71960;BMP280;59832;51.146;14.024;2024-02-16T02:18:58;98263.09;;;8.95
71960;BMP280;59832;51.146;14.024;2024-02-16T02:21:25;98270.78;;;8.99
71960;BMP280;59832;51.146;14.024;2024-02-16T02:23:52;98261.94;;;8.93
71960;BMP280;59832;51.146;14.024;2024-02-16T02:26:18;98257.69;;;8.97
71960;BMP280;59832;51.146;14.024;2024-02-16T02:28:45;98246.44;;;8.82
71960;BMP280;59832;51.146;14.024;2024-02-16T02:31:13;98248.50;;;8.92
71960;BMP280;59832;51.146;14.024;2024-02-16T02:33:39;98238.66;;;8.91
71960;BMP280;59832;51.146;14.024;2024-02-16T02:36:06;98243.69;;;8.87
71960;BMP280;59832;51.146;14.024;2024-02-16T02:38:33;98241.88;;;8.88
71960;BMP280;59832;51.146;14.024;2024-02-16T02:40:59;98240.72;;;8.85
71960;BMP280;59832;51.146;14.024;2024-02-16T02:43:28;98233.75;;;8.82
71960;BMP280;59832;51.146;14.024;2024-02-16T02:45:55;98225.81;;;8.84
71960;BMP280;59832;51.146;14.024;2024-02-16T02:48:23;98224.34;;;8.83
71960;BMP280;59832;51.146;14.024;2024-02-16T02:50:50;98229.41;;;8.83
71960;BMP280;59832;51.146;14.024;2024-02-16T02:53:16;98226.06;;;8.79
71960;BMP280;59832;51.146;14.024;2024-02-16T02:55:44;98226.06;;;8.79
71960;BMP280;59832;51.146;14.024;2024-02-16T02:58:10;98227.56;;;8.80
71960;BMP280;59832;51.146;14.024;2024-02-16T03:00:37;98236.53;;;8.77
71960;BMP280;59832;51.146;14.024;2024-02-16T03:03:03;98218.28;;;8.72
71960;BMP280;59832;51.146;14.024;2024-02-16T03:05:30;98221.19;;;8.74
71960;BMP280;59832;51.146;14.024;2024-02-16T03:07:56;98219.09;;;8.76
71960;BMP280;59832;51.146;14.024;2024-02-16T03:10:25;98221.94;;;8.74
71960;BMP280;59832;51.146;14.024;2024-02-16T03:12:51;98214.88;;;8.80
71960;BMP280;59832;51.146;14.024;2024-02-16T03:15:18;98220.56;;;8.77
71960;BMP280;59832;51.146;14.024;2024-02-16T03:17:44;98227.34;;;8.73
71960;BMP280;59832;51.146;14.024;2024-02-16T03:20:11;98223.84;;;8.77
71960;BMP280;59832;51.146;14.024;2024-02-16T03:22:38;98226.56;;;8.84
71960;BMP280;59832;51.146;14.024;2024-02-16T03:25:04;98231.88;;;8.79
71960;BMP280;59832;51.146;14.024;2024-02-16T03:27:31;98231.47;;;8.77
71960;BMP280;59832;51.146;14.024;2024-02-16T03:29:58;98226.88;;;8.83
71960;BMP280;59832;51.146;14.024;2024-02-16T03:32:24;98229.66;;;8.78
71960;BMP280;59832;51.146;14.024;2024-02-16T03:34:51;98239.06;;;8.77
71960;BMP280;59832;51.146;14.024;2024-02-16T03:37:17;98234.44;;;8.79
71960;BMP280;59832;51.146;14.024;2024-02-16T03:39:44;98241.19;;;8.75
71960;BMP280;59832;51.146;14.024;2024-02-16T03:42:10;98229.56;;;8.74
71960;BMP280;59832;51.146;14.024;2024-02-16T03:44:36;98222.69;;;8.75
71960;BMP280;59832;51.146;14.024;2024-02-16T03:47:03;98219.00;;;8.72
71960;BMP280;59832;51.146;14.024;2024-02-16T03:49:30;98216.63;;;8.64
71960;BMP280;59832;51.146;14.024;2024-02-16T03:51:56;98215.47;;;8.61
71960;BMP280;59832;51.146;14.024;2024-02-16T03:54:23;98222.66;;;8.59
71960;BMP280;59832;51.146;14.024;2024-02-16T03:56:55;98221.19;;;8.58
71960;BMP280;59832;51.146;14.024;2024-02-16T03:59:21;98225.59;;;8.61
71960;BMP280;59832;51.146;14.024;2024-02-16T04:01:48;98231.19;;;8.67
71960;BMP280;59832;51.146;14.024;2024-02-16T04:04:14;98221.69;;;8.64
71960;BMP280;59832;51.146;14.024;2024-02-16T04:06:41;98233.22;;;8.61
71960;BMP280;59832;51.146;14.024;2024-02-16T04:09:08;98232.16;;;8.62
71960;BMP280;59832;51.146;14.024;2024-02-16T04:11:34;98232.38;;;8.57
71960;BMP280;59832;51.146;14.024;2024-02-16T04:14:01;98234.41;;;8.51
71960;BMP280;59832;51.146;14.024;2024-02-16T04:16:28;98233.44;;;8.56
71960;BMP280;59832;51.146;14.024;2024-02-16T04:18:54;98236.72;;;8.56
71960;BMP280;59832;51.146;14.024;2024-02-16T04:21:21;98226.72;;;8.48
71960;BMP280;59832;51.146;14.024;2024-02-16T04:23:48;98232.84;;;8.47
71960;BMP280;59832;51.146;14.024;2024-02-16T04:26:15;98227.38;;;8.45
71960;BMP280;59832;51.146;14.024;2024-02-16T04:28:41;98229.47;;;8.43
71960;BMP280;59832;51.146;14.024;2024-02-16T04:31:08;98233.38;;;8.40
71960;BMP280;59832;51.146;14.024;2024-02-16T04:33:34;98228.84;;;8.46
71960;BMP280;59832;51.146;14.024;2024-02-16T04:36:01;98228.84;;;8.46
71960;BMP280;59832;51.146;14.024;2024-02-16T04:38:28;98234.25;;;8.44
71960;BMP280;59832;51.146;14.024;2024-02-16T04:40:54;98217.06;;;8.38
71960;BMP280;59832;51.146;14.024;2024-02-16T04:43:21;98214.09;;;8.36
71960;BMP280;59832;51.146;14.024;2024-02-16T04:45:47;98206.31;;;8.29
71960;BMP280;59832;51.146;14.024;2024-02-16T04:48:13;98215.28;;;8.26
71960;BMP280;59832;51.146;14.024;2024-02-16T04:50:40;98212.13;;;8.29
71960;BMP280;59832;51.146;14.024;2024-02-16T04:53:07;98216.78;;;8.27
71960;BMP280;59832;51.146;14.024;2024-02-16T04:55:33;98204.28;;;8.22
71960;BMP280;59832;51.146;14.024;2024-02-16T04:58:00;98206.09;;;8.22
71960;BMP280;59832;51.146;14.024;2024-02-16T05:00:26;98207.88;;;8.21
71960;BMP280;59832;51.146;14.024;2024-02-16T05:02:53;98199.88;;;8.19
71960;BMP280;59832;51.146;14.024;2024-02-16T05:05:20;98203.53;;;8.22
71960;BMP280;59832;51.146;14.024;2024-02-16T05:07:48;98200.22;;;8.18
71960;BMP280;59832;51.146;14.024;2024-02-16T05:10:16;98203.19;;;8.07
71960;BMP280;59832;51.146;14.024;2024-02-16T05:12:42;98202.03;;;8.05
71960;BMP280;59832;51.146;14.024;2024-02-16T05:15:09;98196.22;;;8.04
71960;BMP280;59832;51.146;14.024;2024-02-16T05:17:36;98203.50;;;8.06
71960;BMP280;59832;51.146;14.024;2024-02-16T05:20:02;98203.41;;;8.02
71960;BMP280;59832;51.146;14.024;2024-02-16T05:22:29;98212.81;;;8.02
71960;BMP280;59832;51.146;14.024;2024-02-16T05:24:55;98216.97;;;7.94
71960;BMP280;59832;51.146;14.024;2024-02-16T05:27:22;98216.53;;;7.92
71960;BMP280;59832;51.146;14.024;2024-02-16T05:29:48;98224.88;;;7.93
71960;BMP280;59832;51.146;14.024;2024-02-16T05:32:16;98230.56;;;7.90
71960;BMP280;59832;51.146;14.024;2024-02-16T05:34:43;98232.78;;;7.91
71960;BMP280;59832;51.146;14.024;2024-02-16T05:37:09;98231.72;;;7.80
71960;BMP280;59832;51.146;14.024;2024-02-16T05:39:36;98227.09;;;7.94
71960;BMP280;59832;51.146;14.024;2024-02-16T05:42:20;98232.34;;;7.89
71960;BMP280;59832;51.146;14.024;2024-02-16T05:44:48;98233.22;;;7.81
71960;BMP280;59832;51.146;14.024;2024-02-16T05:47:15;98223.06;;;7.81
71960;BMP280;59832;51.146;14.024;2024-02-16T05:49:42;98228.44;;;7.80
71960;BMP280;59832;51.146;14.024;2024-02-16T05:52:08;98223.19;;;7.72
71960;BMP280;59832;51.146;14.024;2024-02-16T05:54:45;98229.84;;;7.77
71960;BMP280;59832;51.146;14.024;2024-02-16T05:57:12;98225.50;;;7.78
71960;BMP280;59832;51.146;14.024;2024-02-16T05:59:39;98235.75;;;7.69
71960;BMP280;59832;51.146;14.024;2024-02-16T06:02:05;98221.78;;;7.87
71960;BMP280;59832;51.146;14.024;2024-02-16T06:04:33;98226.91;;;7.75
71960;BMP280;59832;51.146;14.024;2024-02-16T06:07:00;98227.94;;;7.62
71960;BMP280;59832;51.146;14.024;2024-02-16T06:09:27;98227.63;;;7.63
71960;BMP280;59832;51.146;14.024;2024-02-16T06:12:01;98216.66;;;7.71
71960;BMP280;59832;51.146;14.024;2024-02-16T06:14:31;98210.97;;;7.75
71960;BMP280;59832;51.146;14.024;2024-02-16T06:16:57;98205.03;;;7.70
71960;BMP280;59832;51.146;14.024;2024-02-16T06:19:25;98218.75;;;7.69
71960;BMP280;59832;51.146;14.024;2024-02-16T06:21:52;98216.75;;;7.63
71960;BMP280;59832;51.146;14.024;2024-02-16T06:24:19;98224.78;;;7.65
71960;BMP280;59832;51.146;14.024;2024-02-16T06:26:45;98229.53;;;7.66
71960;BMP280;59832;51.146;14.024;2024-02-16T06:29:13;98224.16;;;7.68
71960;BMP280;59832;51.146;14.024;2024-02-16T06:31:40;98220.44;;;7.65
71960;BMP280;59832;51.146;14.024;2024-02-16T06:34:06;98224.78;;;7.53
71960;BMP280;59832;51.146;14.024;2024-02-16T06:36:34;98225.84;;;7.64
71960;BMP280;59832;51.146;14.024;2024-02-16T06:39:03;98216.03;;;7.62
71960;BMP280;59832;51.146;14.024;2024-02-16T06:41:30;98217.19;;;7.65
71960;BMP280;59832;51.146;14.024;2024-02-16T06:43:56;98219.38;;;7.66
71960;BMP280;59832;51.146;14.024;2024-02-16T06:46:23;98229.13;;;7.64
71960;BMP280;59832;51.146;14.024;2024-02-16T06:48:51;98222.56;;;7.63
71960;BMP280;59832;51.146;14.024;2024-02-16T06:51:18;98222.66;;;7.67
71960;BMP280;59832;51.146;14.024;2024-02-16T06:53:44;98220.44;;;7.65
71960;BMP280;59832;51.146;14.024;2024-02-16T06:56:11;98225.19;;;7.67
71960;BMP280;59832;51.146;14.024;2024-02-16T06:58:38;98227.81;;;7.70
71960;BMP280;59832;51.146;14.024;2024-02-16T07:01:05;98231.75;;;7.68
71960;BMP280;59832;51.146;14.024;2024-02-16T07:03:31;98233.63;;;7.71
71960;BMP280;59832;51.146;14.024;2024-02-16T07:05:58;98230.91;;;7.64
71960;BMP280;59832;51.146;14.024;2024-02-16T07:08:24;98231.75;;;7.68
71960;BMP280;59832;51.146;14.024;2024-02-16T07:10:52;98231.97;;;7.75
71960;BMP280;59832;51.146;14.024;2024-02-16T07:13:19;98230.66;;;7.69
71960;BMP280;59832;51.146;14.024;2024-02-16T07:15:45;98215.06;;;7.67
71960;BMP280;59832;51.146;14.024;2024-02-16T07:18:12;98220.97;;;7.71
71960;BMP280;59832;51.146;14.024;2024-02-16T07:20:39;98217.56;;;7.79
71960;BMP280;59832;51.146;14.024;2024-02-16T07:23:06;98218.94;;;8.01
71960;BMP280;59832;51.146;14.024;2024-02-16T07:25:33;98222.31;;;8.05
71960;BMP280;59832;51.146;14.024;2024-02-16T07:27:59;98214.25;;;8.15
71960;BMP280;59832;51.146;14.024;2024-02-16T07:30:26;98220.03;;;8.28
71960;BMP280;59832;51.146;14.024;2024-02-16T07:33:05;98214.28;;;8.43
71960;BMP280;59832;51.146;14.024;2024-02-16T07:35:34;98220.97;;;8.35
71960;BMP280;59832;51.146;14.024;2024-02-16T07:38:02;98219.91;;;8.36
71960;BMP280;59832;51.146;14.024;2024-02-16T07:40:29;98211.28;;;8.53
71960;BMP280;59832;51.146;14.024;2024-02-16T07:42:57;98207.91;;;9.08
71960;BMP280;59832;51.146;14.024;2024-02-16T07:45:23;98206.34;;;9.35
71960;BMP280;59832;51.146;14.024;2024-02-16T07:47:50;98221.09;;;9.80
71960;BMP280;59832;51.146;14.024;2024-02-16T07:50:21;98214.38;;;10.07
71960;BMP280;59832;51.146;14.024;2024-02-16T07:52:48;98225.06;;;10.58
71960;BMP280;59832;51.146;14.024;2024-02-16T07:55:15;98221.09;;;10.79
71960;BMP280;59832;51.146;14.024;2024-02-16T07:57:44;98220.59;;;10.51
71960;BMP280;59832;51.146;14.024;2024-02-16T08:00:11;98216.13;;;11.13
71960;BMP280;59832;51.146;14.024;2024-02-16T08:02:38;98227.00;;;11.10
71960;BMP280;59832;51.146;14.024;2024-02-16T08:05:06;98228.28;;;10.97
71960;BMP280;59832;51.146;14.024;2024-02-16T08:07:34;98220.25;;;11.21
71960;BMP280;59832;51.146;14.024;2024-02-16T08:10:01;98221.28;;;11.16
71960;BMP280;59832;51.146;14.024;2024-02-16T08:12:28;98233.50;;;11.04
71960;BMP280;59832;51.146;14.024;2024-02-16T08:14:57;98229.56;;;11.62
71960;BMP280;59832;51.146;14.024;2024-02-16T08:17:26;98226.22;;;11.88
71960;BMP280;59832;51.146;14.024;2024-02-16T08:19:53;98224.28;;;12.08
71960;BMP280;59832;51.146;14.024;2024-02-16T08:22:21;98223.38;;;11.93
71960;BMP280;59832;51.146;14.024;2024-02-16T08:24:47;98212.78;;;12.28
71960;BMP280;59832;51.146;14.024;2024-02-16T08:27:16;98208.03;;;12.26
71960;BMP280;59832;51.146;14.024;2024-02-16T08:29:43;98202.19;;;11.89
71960;BMP280;59832;51.146;14.024;2024-02-16T08:32:10;98215.63;;;11.26
71960;BMP280;59832;51.146;14.024;2024-02-16T08:34:37;98220.91;;;10.92
71960;BMP280;59832;51.146;14.024;2024-02-16T08:37:05;98212.97;;;11.46
71960;BMP280;59832;51.146;14.024;2024-02-16T08:39:33;98203.00;;;11.37
71960;BMP280;59832;51.146;14.024;2024-02-16T08:42:01;98204.75;;;11.07
71960;BMP280;59832;51.146;14.024;2024-02-16T08:44:28;98200.75;;;10.79
71960;BMP280;59832;51.146;14.024;2024-02-16T08:46:55;98208.94;;;10.69
71960;BMP280;59832;51.146;14.024;2024-02-16T08:49:21;98196.81;;;10.02
71960;BMP280;59832;51.146;14.024;2024-02-16T08:51:48;98204.00;;;9.61
71960;BMP280;59832;51.146;14.024;2024-02-16T08:54:14;98209.25;;;9.87
71960;BMP280;59832;51.146;14.024;2024-02-16T08:56:41;98208.97;;;10.12
71960;BMP280;59832;51.146;14.024;2024-02-16T08:59:08;98203.28;;;10.37
71960;BMP280;59832;51.146;14.024;2024-02-16T09:01:36;98200.16;;;10.06
71960;BMP280;59832;51.146;14.024;2024-02-16T09:04:03;98198.00;;;10.27
71960;BMP280;59832;51.146;14.024;2024-02-16T09:06:30;98205.59;;;10.65
71960;BMP280;59832;51.146;14.024;2024-02-16T09:08:57;98198.03;;;10.50
71960;BMP280;59832;51.146;14.024;2024-02-16T09:11:23;98203.69;;;10.20
71960;BMP280;59832;51.146;14.024;2024-02-16T09:13:50;98195.41;;;10.04
71960;BMP280;59832;51.146;14.024;2024-02-16T09:16:17;98200.91;;;10.06
71960;BMP280;59832;51.146;14.024;2024-02-16T09:18:47;98201.22;;;10.05
71960;BMP280;59832;51.146;14.024;2024-02-16T09:21:15;98212.22;;;10.09
71960;BMP280;59832;51.146;14.024;2024-02-16T09:23:41;98209.22;;;9.68
71960;BMP280;59832;51.146;14.024;2024-02-16T09:26:08;98213.72;;;9.75
71960;BMP280;59832;51.146;14.024;2024-02-16T09:28:41;98216.44;;;10.01
71960;BMP280;59832;51.146;14.024;2024-02-16T09:31:07;98217.00;;;9.94
71960;BMP280;59832;51.146;14.024;2024-02-16T09:33:34;98207.25;;;9.96
71960;BMP280;59832;51.146;14.024;2024-02-16T09:36:02;98208.78;;;9.82
71960;BMP280;59832;51.146;14.024;2024-02-16T09:38:31;98209.06;;;9.96
71960;BMP280;59832;51.146;14.024;2024-02-16T09:40:58;98216.47;;;9.85
71960;BMP280;59832;51.146;14.024;2024-02-16T09:43:29;98205.84;;;9.80
71960;BMP280;59832;51.146;14.024;2024-02-16T09:45:56;98213.28;;;10.08
71960;BMP280;59832;51.146;14.024;2024-02-16T09:48:26;98215.34;;;10.40
71960;BMP280;59832;51.146;14.024;2024-02-16T09:50:57;98221.59;;;10.88
71960;BMP280;59832;51.146;14.024;2024-02-16T09:53:27;98223.91;;;11.20
71960;BMP280;59832;51.146;14.024;2024-02-16T09:55:54;98223.59;;;12.14
71960;BMP280;59832;51.146;14.024;2024-02-16T09:58:21;98231.34;;;12.21
71960;BMP280;59832;51.146;14.024;2024-02-16T10:00:51;98241.91;;;12.23
71960;BMP280;59832;51.146;14.024;2024-02-16T10:03:30;98245.63;;;12.29
71960;BMP280;59832;51.146;14.024;2024-02-16T10:06:10;98245.09;;;11.83
71960;BMP280;59832;51.146;14.024;2024-02-16T10:08:51;98258.59;;;11.58
71960;BMP280;59832;51.146;14.024;2024-02-16T10:11:20;98265.31;;;11.17
71960;BMP280;59832;51.146;14.024;2024-02-16T10:14:00;98254.22;;;11.06
71960;BMP280;59832;51.146;14.024;2024-02-16T10:16:28;98252.78;;;11.05
71960;BMP280;59832;51.146;14.024;2024-02-16T10:19:05;98257.09;;;10.59
71960;BMP280;59832;51.146;14.024;2024-02-16T10:21:32;98259.19;;;10.53
71960;BMP280;59832;51.146;14.024;2024-02-16T10:24:05;98248.34;;;10.56
71960;BMP280;59832;51.146;14.024;2024-02-16T10:26:36;98259.78;;;10.47
71960;BMP280;59832;51.146;14.024;2024-02-16T10:29:08;98251.09;;;10.28
71960;BMP280;59832;51.146;14.024;2024-02-16T10:31:35;98254.72;;;10.27
71960;BMP280;59832;51.146;14.024;2024-02-16T10:34:06;98246.19;;;10.39
71960;BMP280;59832;51.146;14.024;2024-02-16T10:36:37;98238.63;;;10.42
71960;BMP280;59832;51.146;14.024;2024-02-16T10:39:06;98234.50;;;10.57
71960;BMP280;59832;51.146;14.024;2024-02-16T10:41:36;98217.22;;;10.66
71960;BMP280;59832;51.146;14.024;2024-02-16T10:44:03;98213.16;;;10.62
71960;BMP280;59832;51.146;14.024;2024-02-16T10:46:31;98209.19;;;10.64
71960;BMP280;59832;51.146;14.024;2024-02-16T10:48:58;98210.50;;;10.77
71960;BMP280;59832;51.146;14.024;2024-02-16T10:51:37;98227.91;;;10.98
71960;BMP280;59832;51.146;14.024;2024-02-16T10:54:06;98225.09;;;11.03
71960;BMP280;59832;51.146;14.024;2024-02-16T10:59:02;98202.66;;;10.86
71960;BMP280;59832;51.146;14.024;2024-02-16T11:01:43;98199.03;;;10.87
71960;BMP280;59832;51.146;14.024;2024-02-16T11:04:18;98180.50;;;10.90
71960;BMP280;59832;51.146;14.024;2024-02-16T11:06:54;98190.94;;;11.08
71960;BMP280;59832;51.146;14.024;2024-02-16T11:09:30;98191.34;;;11.10
71960;BMP280;59832;51.146;14.024;2024-02-16T11:12:07;98189.22;;;11.15
71960;BMP280;59832;51.146;14.024;2024-02-16T11:14:40;98209.91;;;11.36
71960;BMP280;59832;51.146;14.024;2024-02-16T11:17:14;98204.00;;;11.59
71960;BMP280;59832;51.146;14.024;2024-02-16T11:19:45;98198.81;;;11.81
71960;BMP280;59832;51.146;14.024;2024-02-16T11:22:16;98191.66;;;11.61
71960;BMP280;59832;51.146;14.024;2024-02-16T11:24:45;98189.19;;;11.68
71960;BMP280;59832;51.146;14.024;2024-02-16T11:27:12;98192.72;;;11.60
71960;BMP280;59832;51.146;14.024;2024-02-16T11:29:40;98189.00;;;11.80
71960;BMP280;59832;51.146;14.024;2024-02-16T11:32:07;98197.56;;;11.68
71960;BMP280;59832;51.146;14.024;2024-02-16T11:34:34;98196.28;;;11.52
71960;BMP280;59832;51.146;14.024;2024-02-16T11:37:02;98190.75;;;11.76
71960;BMP280;59832;51.146;14.024;2024-02-16T11:39:28;98196.56;;;11.76
71960;BMP280;59832;51.146;14.024;2024-02-16T11:42:03;98190.00;;;11.46
71960;BMP280;59832;51.146;14.024;2024-02-16T11:44:30;98200.13;;;11.68
71960;BMP280;59832;51.146;14.024;2024-02-16T11:46:59;98204.47;;;11.68
71960;BMP280;59832;51.146;14.024;2024-02-16T11:49:31;98202.59;;;11.91
71960;BMP280;59832;51.146;14.024;2024-02-16T11:52:01;98207.50;;;12.10
71960;BMP280;59832;51.146;14.024;2024-02-16T11:54:30;98200.66;;;12.14
71960;BMP280;59832;51.146;14.024;2024-02-16T11:56:58;98195.91;;;11.79
71960;BMP280;59832;51.146;14.024;2024-02-16T11:59:24;98193.91;;;11.66
71960;BMP280;59832;51.146;14.024;2024-02-16T12:01:56;98185.22;;;11.70
71960;BMP280;59832;51.146;14.024;2024-02-16T12:04:23;98186.53;;;11.57
71960;BMP280;59832;51.146;14.024;2024-02-16T12:06:58;98199.38;;;11.68
71960;BMP280;59832;51.146;14.024;2024-02-16T12:09:30;98182.13;;;11.54
71960;BMP280;59832;51.146;14.024;2024-02-16T12:12:02;98192.41;;;11.61
71960;BMP280;59832;51.146;14.024;2024-02-16T12:14:29;98192.22;;;11.47
71960;BMP280;59832;51.146;14.024;2024-02-16T12:16:56;98200.47;;;11.37
71960;BMP280;59832;51.146;14.024;2024-02-16T12:19:23;98200.47;;;11.37
71960;BMP280;59832;51.146;14.024;2024-02-16T12:21:55;98187.09;;;11.17
71960;BMP280;59832;51.146;14.024;2024-02-16T12:24:23;98184.50;;;11.14
71960;BMP280;59832;51.146;14.024;2024-02-16T12:26:50;98180.44;;;11.09
71960;BMP280;59832;51.146;14.024;2024-02-16T12:29:17;98180.84;;;11.15
71960;BMP280;59832;51.146;14.024;2024-02-16T12:31:45;98193.72;;;11.22
71960;BMP280;59832;51.146;14.024;2024-02-16T12:34:12;98186.16;;;11.29
71960;BMP280;59832;51.146;14.024;2024-02-16T12:36:40;98199.44;;;11.42
71960;BMP280;59832;51.146;14.024;2024-02-16T12:39:09;98209.66;;;11.45
71960;BMP280;59832;51.146;14.024;2024-02-16T12:41:38;98212.38;;;11.59
71960;BMP280;59832;51.146;14.024;2024-02-16T12:44:07;98212.13;;;11.64
71960;BMP280;59832;51.146;14.024;2024-02-16T12:46:34;98217.41;;;11.82
71960;BMP280;59832;51.146;14.024;2024-02-16T12:49:01;98213.09;;;11.86
71960;BMP280;59832;51.146;14.024;2024-02-16T12:51:28;98215.59;;;11.82
71960;BMP280;59832;51.146;14.024;2024-02-16T12:53:54;98220.38;;;11.88
71960;BMP280;59832;51.146;14.024;2024-02-16T12:56:21;98203.69;;;11.94
71960;BMP280;59832;51.146;14.024;2024-02-16T12:58:47;98204.56;;;11.71
71960;BMP280;59832;51.146;14.024;2024-02-16T13:01:14;98212.56;;;11.73
71960;BMP280;59832;51.146;14.024;2024-02-16T13:03:51;98197.16;;;11.63
71960;BMP280;59832;51.146;14.024;2024-02-16T13:06:18;98190.66;;;11.65
71960;BMP280;59832;51.146;14.024;2024-02-16T13:08:48;98197.50;;;11.61
71960;BMP280;59832;51.146;14.024;2024-02-16T13:11:14;98192.88;;;11.70
71960;BMP280;59832;51.146;14.024;2024-02-16T13:13:41;98203.41;;;11.65
71960;BMP280;59832;51.146;14.024;2024-02-16T13:16:08;98193.91;;;11.66
71960;BMP280;59832;51.146;14.024;2024-02-16T13:18:35;98191.06;;;11.71
71960;BMP280;59832;51.146;14.024;2024-02-16T13:21:01;98194.69;;;11.70
71960;BMP280;59832;51.146;14.024;2024-02-16T13:23:28;98194.34;;;11.71
71960;BMP280;59832;51.146;14.024;2024-02-16T13:25:57;98203.41;;;11.69
71960;BMP280;59832;51.146;14.024;2024-02-16T13:28:24;98186.34;;;11.73
71960;BMP280;59832;51.146;14.024;2024-02-16T13:30:50;98196.81;;;11.64
71960;BMP280;59832;51.146;14.024;2024-02-16T13:33:17;98183.00;;;11.69
71960;BMP280;59832;51.146;14.024;2024-02-16T13:35:43;98190.44;;;11.81
71960;BMP280;59832;51.146;14.024;2024-02-16T13:38:10;98183.66;;;11.96
71960;BMP280;59832;51.146;14.024;2024-02-16T13:40:36;98187.28;;;11.91
71960;BMP280;59832;51.146;14.024;2024-02-16T13:43:03;98192.41;;;11.95
71960;BMP280;59832;51.146;14.024;2024-02-16T13:45:48;98184.75;;;11.95
71960;BMP280;59832;51.146;14.024;2024-02-16T13:48:14;98182.88;;;11.88
71960;BMP280;59832;51.146;14.024;2024-02-16T13:50:44;98175.88;;;11.81
71960;BMP280;59832;51.146;14.024;2024-02-16T13:53:11;98182.75;;;11.77
71960;BMP280;59832;51.146;14.024;2024-02-16T13:55:37;98181.59;;;11.71
71960;BMP280;59832;51.146;14.024;2024-02-16T13:58:04;98178.06;;;11.79
71960;BMP280;59832;51.146;14.024;2024-02-16T14:00:30;98174.22;;;11.66
71960;BMP280;59832;51.146;14.024;2024-02-16T14:02:57;98172.81;;;11.69
71960;BMP280;59832;51.146;14.024;2024-02-16T14:05:23;98180.84;;;11.41
71960;BMP280;59832;51.146;14.024;2024-02-16T14:07:51;98184.50;;;11.14
71960;BMP280;59832;51.146;14.024;2024-02-16T14:10:26;98181.16;;;11.10